PWSweather.com
Personal Weather Stations
Station Observations
TAMWORTH
TamworthGB

TamworthGB

Lat: 52.64844, Lon: -1.68986

Elevation: 275

Station Type: Davis 6162C Vantage Pro2 Plus with daytime FARS permanently connected to a dedicated HP Mini 110-4116sa series netbook computer

http://tamworthweather.com

Latest ConditionsUpdated 5:10:05 PM GMT Monday, Jan 21, 2019
Currently Today's Max Today's Min Today's Average
Temperature 39.6°F4.2°C 42.4°F5.8°C 34.9°F1.6°C 37.8°F3.2°C
Dew Point 34.5°F1.4°C 39.0°F3.9°C 33.1°F0.6°C 35.2°F1.8°C
Winds 6.0 mph S9.7 kmh S 8.0 mph -12.9 kmh - - 3.1 mph 5.0 kmh
Wind Gusts 11.0 mph17.7 kmh 20.0 mph32.2 kmh - -
Humidity 82% 94% 80% 91%
Pressure 29.97 in1014.9 mb 30.25 in1024.4 mb 29.97 in1014.9 mb -
Hour Temp Dew Point Humidity Winds Wind Gusts Pressure Precip Precip Rate Daily Precip Total
05:10 PM 39.6°F4.2°C 34.5°F1.4°C 82% 6.0 mph S9.7 kmh S 11.0 mph17.7 kmh 29.97 in1014.9 mb 0.00 in0.0 mm 0.00 in0.0 mm 0.00 in0.0 mm
05:00 PM 39.7°F4.3°C 34.7°F1.5°C 82% 6.0 mph S9.7 kmh S 14.0 mph22.5 kmh 29.97 in1014.9 mb 0.00 in0.0 mm 0.00 in0.0 mm 0.00 in0.0 mm
04:50 PM 39.9°F4.4°C 34.9°F1.6°C 82% 6.0 mph S9.7 kmh S 14.0 mph22.5 kmh 29.98 in1015.2 mb 0.00 in0.0 mm 0.00 in0.0 mm 0.00 in0.0 mm
04:40 PM 40.3°F4.6°C 35.2°F1.8°C 82% 7.0 mph S11.3 kmh S 14.0 mph22.5 kmh 29.99 in1015.6 mb 0.00 in0.0 mm 0.00 in0.0 mm 0.00 in0.0 mm
04:30 PM 40.5°F4.7°C 35.4°F1.9°C 82% 7.0 mph SSW11.3 kmh SSW 17.0 mph27.4 kmh 29.99 in1015.6 mb 0.00 in0.0 mm 0.00 in0.0 mm 0.00 in0.0 mm
04:20 PM 40.5°F4.7°C 35.4°F1.9°C 82% 6.0 mph SSW9.7 kmh SSW 13.0 mph20.9 kmh 30.00 in1015.9 mb 0.00 in0.0 mm 0.00 in0.0 mm 0.00 in0.0 mm
04:10 PM 40.6°F4.8°C 35.3°F1.8°C 81% 6.0 mph S9.7 kmh S 11.0 mph17.7 kmh 30.00 in1015.9 mb 0.00 in0.0 mm 0.00 in0.0 mm 0.00 in0.0 mm
04:00 PM 40.6°F4.8°C 35.3°F1.8°C 81% 7.0 mph S11.3 kmh S 12.0 mph19.3 kmh 30.01 in1016.3 mb 0.00 in0.0 mm 0.00 in0.0 mm 0.00 in0.0 mm
03:50 PM 40.8°F4.9°C 35.4°F1.9°C 81% 7.0 mph SSW11.3 kmh SSW 14.0 mph22.5 kmh 30.02 in1016.6 mb 0.00 in0.0 mm 0.00 in0.0 mm 0.00 in0.0 mm
03:40 PM 40.8°F4.9°C 35.4°F1.9°C 81% 7.0 mph SSW11.3 kmh SSW 14.0 mph22.5 kmh 30.02 in1016.6 mb 0.00 in0.0 mm 0.00 in0.0 mm 0.00 in0.0 mm
03:30 PM 40.8°F4.9°C 35.4°F1.9°C 81% 7.0 mph SW11.3 kmh SW 13.0 mph20.9 kmh 30.03 in1016.9 mb 0.00 in0.0 mm 0.00 in0.0 mm 0.00 in0.0 mm
03:20 PM 41.0°F5.0°C 35.6°F2.0°C 81% 8.0 mph SSW12.9 kmh SSW 11.0 mph17.7 kmh 30.03 in1016.9 mb 0.00 in0.0 mm 0.00 in0.0 mm 0.00 in0.0 mm
03:10 PM 41.0°F5.0°C 35.6°F2.0°C 81% 7.0 mph SSW11.3 kmh SSW 13.0 mph20.9 kmh 30.04 in1017.3 mb 0.00 in0.0 mm 0.00 in0.0 mm 0.00 in0.0 mm
03:00 PM 41.2°F5.1°C 35.5°F1.9°C 80% 8.0 mph SSW12.9 kmh SSW 14.0 mph22.5 kmh 30.05 in1017.6 mb 0.00 in0.0 mm 0.00 in0.0 mm 0.00 in0.0 mm
02:50 PM 41.2°F5.1°C 35.5°F1.9°C 80% 8.0 mph SSW12.9 kmh SSW 19.0 mph30.6 kmh 30.05 in1017.6 mb 0.00 in0.0 mm 0.00 in0.0 mm 0.00 in0.0 mm
02:40 PM 41.2°F5.1°C 35.8°F2.1°C 81% 7.0 mph SSW11.3 kmh SSW 16.0 mph25.7 kmh 30.05 in1017.6 mb 0.00 in0.0 mm 0.00 in0.0 mm 0.00 in0.0 mm
02:30 PM 41.2°F5.1°C 36.1°F2.3°C 82% 8.0 mph SSW12.9 kmh SSW 20.0 mph32.2 kmh 30.05 in1017.6 mb 0.00 in0.0 mm 0.00 in0.0 mm 0.00 in0.0 mm
02:20 PM 41.2°F5.1°C 35.8°F2.1°C 81% 8.0 mph SSW12.9 kmh SSW 18.0 mph29.0 kmh 30.06 in1017.9 mb 0.00 in0.0 mm 0.00 in0.0 mm 0.00 in0.0 mm
02:10 PM 41.2°F5.1°C 35.8°F2.1°C 81% 7.0 mph SSW11.3 kmh SSW 16.0 mph25.7 kmh 30.07 in1018.3 mb 0.00 in0.0 mm 0.00 in0.0 mm 0.00 in0.0 mm
02:00 PM 41.4°F5.2°C 36.3°F2.4°C 82% 7.0 mph SSW11.3 kmh SSW 14.0 mph22.5 kmh 30.07 in1018.3 mb 0.00 in0.0 mm 0.00 in0.0 mm 0.00 in0.0 mm
01:50 PM 41.4°F5.2°C 36.3°F2.4°C 82% 8.0 mph SSW12.9 kmh SSW 15.0 mph24.1 kmh 30.08 in1018.6 mb 0.00 in0.0 mm 0.00 in0.0 mm 0.00 in0.0 mm
01:40 PM 41.5°F5.3°C 36.5°F2.5°C 82% 7.0 mph SSW11.3 kmh SSW 14.0 mph22.5 kmh 30.09 in1019.0 mb 0.00 in0.0 mm 0.00 in0.0 mm 0.00 in0.0 mm
01:30 PM 41.9°F5.5°C 36.8°F2.7°C 82% 7.0 mph SSW11.3 kmh SSW 14.0 mph22.5 kmh 30.09 in1019.0 mb 0.00 in0.0 mm 0.00 in0.0 mm 0.00 in0.0 mm
01:20 PM 42.3°F5.7°C 37.2°F2.9°C 82% 7.0 mph SW11.3 kmh SW 11.0 mph17.7 kmh 30.10 in1019.3 mb 0.00 in0.0 mm 0.00 in0.0 mm 0.00 in0.0 mm
01:10 PM 42.1°F5.6°C 37.0°F2.8°C 82% 8.0 mph SSW12.9 kmh SSW 16.0 mph25.7 kmh 30.11 in1019.6 mb 0.00 in0.0 mm 0.00 in0.0 mm 0.00 in0.0 mm
01:00 PM 42.3°F5.7°C 37.2°F2.9°C 82% 7.0 mph SW11.3 kmh SW 14.0 mph22.5 kmh 30.11 in1019.6 mb 0.00 in0.0 mm 0.00 in0.0 mm 0.00 in0.0 mm
12:50 PM 42.4°F5.8°C 37.6°F3.1°C 83% 7.0 mph SSW11.3 kmh SSW 12.0 mph19.3 kmh 30.12 in1020.0 mb 0.00 in0.0 mm 0.00 in0.0 mm 0.00 in0.0 mm
12:40 PM 42.4°F5.8°C 38.2°F3.4°C 85% 7.0 mph SSW11.3 kmh SSW 15.0 mph24.1 kmh 30.12 in1020.0 mb 0.00 in0.0 mm 0.00 in0.0 mm 0.00 in0.0 mm
12:30 PM 41.7°F5.4°C 39.0°F3.9°C 90% 6.0 mph SW9.7 kmh SW 12.0 mph19.3 kmh 30.13 in1020.3 mb 0.00 in0.0 mm 0.00 in0.0 mm 0.00 in0.0 mm
12:20 PM 41.2°F5.1°C 39.0°F3.9°C 92% 6.0 mph SSW9.7 kmh SSW 10.0 mph16.1 kmh 30.13 in1020.3 mb 0.00 in0.0 mm 0.00 in0.0 mm 0.00 in0.0 mm
12:10 PM 40.8°F4.9°C 39.0°F3.9°C 93% 6.0 mph SSW9.7 kmh SSW 14.0 mph22.5 kmh 30.14 in1020.7 mb 0.00 in0.0 mm 0.00 in0.0 mm 0.00 in0.0 mm
12:00 PM 40.6°F4.8°C 38.8°F3.8°C 93% 5.0 mph SSW8.0 kmh SSW 14.0 mph22.5 kmh 30.15 in1021.0 mb 0.00 in0.0 mm 0.00 in0.0 mm 0.00 in0.0 mm
11:50 AM 40.5°F4.7°C 38.9°F3.8°C 94% 5.0 mph SSW8.0 kmh SSW 10.0 mph16.1 kmh 30.15 in1021.0 mb 0.00 in0.0 mm 0.00 in0.0 mm 0.00 in0.0 mm
11:40 AM 39.9°F4.4°C 38.3°F3.5°C 94% 5.0 mph SSW8.0 kmh SSW 9.0 mph14.5 kmh 30.16 in1021.3 mb 0.00 in0.0 mm 0.00 in0.0 mm 0.00 in0.0 mm
11:30 AM 39.7°F4.3°C 38.2°F3.4°C 94% 4.0 mph S6.4 kmh S 9.0 mph14.5 kmh 30.16 in1021.3 mb 0.00 in0.0 mm 0.00 in0.0 mm 0.00 in0.0 mm
11:20 AM 39.4°F4.1°C 37.8°F3.2°C 94% 4.0 mph S6.4 kmh S 8.0 mph12.9 kmh 30.17 in1021.7 mb 0.00 in0.0 mm 0.00 in0.0 mm 0.00 in0.0 mm
11:10 AM 38.8°F3.8°C 37.3°F2.9°C 94% 4.0 mph S6.4 kmh S 7.0 mph11.3 kmh 30.17 in1021.7 mb 0.00 in0.0 mm 0.00 in0.0 mm 0.00 in0.0 mm
11:00 AM 38.8°F3.8°C 37.3°F2.9°C 94% 4.0 mph S6.4 kmh S 8.0 mph12.9 kmh 30.18 in1022.0 mb 0.00 in0.0 mm 0.00 in0.0 mm 0.00 in0.0 mm
10:50 AM 38.8°F3.8°C 37.3°F2.9°C 94% 4.0 mph SSW6.4 kmh SSW 7.0 mph11.3 kmh 30.18 in1022.0 mb 0.00 in0.0 mm 0.00 in0.0 mm 0.00 in0.0 mm
10:40 AM 38.7°F3.7°C 37.1°F2.8°C 94% 3.0 mph S4.8 kmh S 5.0 mph8.0 kmh 30.18 in1022.0 mb 0.00 in0.0 mm 0.00 in0.0 mm 0.00 in0.0 mm
10:30 AM 38.3°F3.5°C 36.7°F2.6°C 94% 3.0 mph S4.8 kmh S 6.0 mph9.7 kmh 30.19 in1022.4 mb 0.00 in0.0 mm 0.00 in0.0 mm 0.00 in0.0 mm
10:20 AM 37.9°F3.3°C 36.4°F2.4°C 94% 4.0 mph S6.4 kmh S 6.0 mph9.7 kmh 30.19 in1022.4 mb 0.00 in0.0 mm 0.00 in0.0 mm 0.00 in0.0 mm
10:10 AM 37.9°F3.3°C 36.4°F2.4°C 94% 3.0 mph S4.8 kmh S 7.0 mph11.3 kmh 30.20 in1022.7 mb 0.00 in0.0 mm 0.00 in0.0 mm 0.00 in0.0 mm
10:00 AM 37.8°F3.2°C 36.2°F2.3°C 94% 3.0 mph SSW4.8 kmh SSW 7.0 mph11.3 kmh 30.20 in1022.7 mb 0.00 in0.0 mm 0.00 in0.0 mm 0.00 in0.0 mm
09:50 AM 37.8°F3.2°C 36.2°F2.3°C 94% 2.0 mph SW3.2 kmh SW 6.0 mph9.7 kmh 30.21 in1023.0 mb 0.00 in0.0 mm 0.00 in0.0 mm 0.00 in0.0 mm
09:40 AM 37.4°F3.0°C 35.8°F2.1°C 94% 2.0 mph SSW3.2 kmh SSW 4.0 mph6.4 kmh 30.21 in1023.0 mb 0.00 in0.0 mm 0.00 in0.0 mm 0.00 in0.0 mm
09:30 AM 37.2°F2.9°C 35.7°F2.1°C 94% 3.0 mph S4.8 kmh S 6.0 mph9.7 kmh 30.21 in1023.0 mb 0.00 in0.0 mm 0.00 in0.0 mm 0.00 in0.0 mm
09:20 AM 37.2°F2.9°C 35.7°F2.1°C 94% 3.0 mph S4.8 kmh S 6.0 mph9.7 kmh 30.22 in1023.4 mb 0.00 in0.0 mm 0.00 in0.0 mm 0.00 in0.0 mm
09:10 AM 37.0°F2.8°C 35.5°F1.9°C 94% 2.0 mph SSE3.2 kmh SSE 4.0 mph6.4 kmh 30.22 in1023.4 mb 0.00 in0.0 mm 0.00 in0.0 mm 0.00 in0.0 mm
09:00 AM 37.0°F2.8°C 35.5°F1.9°C 94% 2.0 mph SSE3.2 kmh SSE 3.0 mph4.8 kmh 30.22 in1023.4 mb 0.00 in0.0 mm 0.00 in0.0 mm 0.00 in0.0 mm
08:50 AM 36.9°F2.7°C 35.3°F1.8°C 94% 1.0 mph S1.6 kmh S 3.0 mph4.8 kmh 30.23 in1023.7 mb 0.00 in0.0 mm 0.00 in0.0 mm 0.00 in0.0 mm
08:40 AM 36.7°F2.6°C 35.1°F1.7°C 94% 2.0 mph WSW3.2 kmh WSW 4.0 mph6.4 kmh 30.22 in1023.4 mb 0.00 in0.0 mm 0.00 in0.0 mm 0.00 in0.0 mm
08:30 AM 36.5°F2.5°C 34.9°F1.6°C 94% 1.0 mph WSW1.6 kmh WSW 3.0 mph4.8 kmh 30.22 in1023.4 mb 0.00 in0.0 mm 0.00 in0.0 mm 0.00 in0.0 mm
08:20 AM 36.3°F2.4°C 34.8°F1.6°C 94% 2.0 mph WSW3.2 kmh WSW 3.0 mph4.8 kmh 30.22 in1023.4 mb 0.00 in0.0 mm 0.00 in0.0 mm 0.00 in0.0 mm
08:10 AM 36.1°F2.3°C 34.6°F1.4°C 94% 2.0 mph W3.2 kmh W 4.0 mph6.4 kmh 30.22 in1023.4 mb 0.00 in0.0 mm 0.00 in0.0 mm 0.00 in0.0 mm
08:00 AM 36.0°F2.2°C 34.4°F1.3°C 94% 1.0 mph NW1.6 kmh NW 3.0 mph4.8 kmh 30.22 in1023.4 mb 0.00 in0.0 mm 0.00 in0.0 mm 0.00 in0.0 mm
07:50 AM 36.1°F2.3°C 34.6°F1.4°C 94% Calm Calm 2.0 mph3.2 kmh 30.22 in1023.4 mb 0.00 in0.0 mm 0.00 in0.0 mm 0.00 in0.0 mm
07:40 AM 36.1°F2.3°C 34.6°F1.4°C 94% Calm Calm 2.0 mph3.2 kmh 30.23 in1023.7 mb 0.00 in0.0 mm 0.00 in0.0 mm 0.00 in0.0 mm
07:30 AM 36.1°F2.3°C 34.6°F1.4°C 94% 2.0 mph NW3.2 kmh NW 3.0 mph4.8 kmh 30.22 in1023.4 mb 0.00 in0.0 mm 0.00 in0.0 mm 0.00 in0.0 mm
07:20 AM 35.6°F2.0°C 34.0°F1.1°C 94% 2.0 mph NW3.2 kmh NW 5.0 mph8.0 kmh 30.23 in1023.7 mb 0.00 in0.0 mm 0.00 in0.0 mm 0.00 in0.0 mm
07:10 AM 35.6°F2.0°C 34.0°F1.1°C 94% 2.0 mph NW3.2 kmh NW 5.0 mph8.0 kmh 30.23 in1023.7 mb 0.00 in0.0 mm 0.00 in0.0 mm 0.00 in0.0 mm
07:00 AM 35.2°F1.8°C 33.7°F0.9°C 94% 1.0 mph NNW1.6 kmh NNW 4.0 mph6.4 kmh 30.22 in1023.4 mb 0.00 in0.0 mm 0.00 in0.0 mm 0.00 in0.0 mm
06:50 AM 35.1°F1.7°C 33.5°F0.8°C 94% Calm Calm 1.0 mph1.6 kmh 30.22 in1023.4 mb 0.00 in0.0 mm 0.00 in0.0 mm 0.00 in0.0 mm
06:40 AM 35.2°F1.8°C 33.7°F0.9°C 94% Calm Calm 1.0 mph1.6 kmh 30.22 in1023.4 mb 0.00 in0.0 mm 0.00 in0.0 mm 0.00 in0.0 mm
06:30 AM 35.2°F1.8°C 33.7°F0.9°C 94% 1.0 mph NW1.6 kmh NW 2.0 mph3.2 kmh 30.22 in1023.4 mb 0.00 in0.0 mm 0.00 in0.0 mm 0.00 in0.0 mm
06:20 AM 35.4°F1.9°C 33.9°F1.1°C 94% 2.0 mph NW3.2 kmh NW 3.0 mph4.8 kmh 30.22 in1023.4 mb 0.00 in0.0 mm 0.00 in0.0 mm 0.00 in0.0 mm
06:10 AM 35.2°F1.8°C 33.7°F0.9°C 94% 2.0 mph NW3.2 kmh NW 4.0 mph6.4 kmh 30.22 in1023.4 mb 0.00 in0.0 mm 0.00 in0.0 mm 0.00 in0.0 mm
06:00 AM 35.1°F1.7°C 33.5°F0.8°C 94% 3.0 mph NW4.8 kmh NW 4.0 mph6.4 kmh 30.23 in1023.7 mb 0.00 in0.0 mm 0.00 in0.0 mm 0.00 in0.0 mm
05:50 AM 35.1°F1.7°C 33.5°F0.8°C 94% 2.0 mph NNW3.2 kmh NNW 5.0 mph8.0 kmh 30.23 in1023.7 mb 0.00 in0.0 mm 0.00 in0.0 mm 0.00 in0.0 mm
05:40 AM 35.2°F1.8°C 33.7°F0.9°C 94% Calm Calm 3.0 mph4.8 kmh 30.22 in1023.4 mb 0.00 in0.0 mm 0.00 in0.0 mm 0.00 in0.0 mm
05:30 AM 35.4°F1.9°C 33.9°F1.1°C 94% Calm Calm -- 30.22 in1023.4 mb 0.00 in0.0 mm 0.00 in0.0 mm 0.00 in0.0 mm
05:20 AM 35.6°F2.0°C 34.0°F1.1°C 94% Calm Calm 2.0 mph3.2 kmh 30.22 in1023.4 mb 0.00 in0.0 mm 0.00 in0.0 mm 0.00 in0.0 mm
05:10 AM 35.8°F2.1°C 34.2°F1.2°C 94% Calm Calm -- 30.22 in1023.4 mb 0.00 in0.0 mm 0.00 in0.0 mm 0.00 in0.0 mm
05:00 AM 35.8°F2.1°C 34.2°F1.2°C 94% Calm Calm -- 30.22 in1023.4 mb 0.00 in0.0 mm 0.00 in0.0 mm 0.00 in0.0 mm
04:50 AM 36.0°F2.2°C 34.4°F1.3°C 94% Calm Calm -- 30.23 in1023.7 mb 0.00 in0.0 mm 0.00 in0.0 mm 0.00 in0.0 mm
04:40 AM 36.0°F2.2°C 34.4°F1.3°C 94% Calm Calm -- 30.23 in1023.7 mb 0.00 in0.0 mm 0.00 in0.0 mm 0.00 in0.0 mm
04:30 AM 36.1°F2.3°C 34.6°F1.4°C 94% Calm Calm -- 30.23 in1023.7 mb 0.00 in0.0 mm 0.00 in0.0 mm 0.00 in0.0 mm
04:20 AM 36.0°F2.2°C 34.4°F1.3°C 94% Calm Calm -- 30.24 in1024.0 mb 0.00 in0.0 mm 0.00 in0.0 mm 0.00 in0.0 mm
04:10 AM 36.0°F2.2°C 34.4°F1.3°C 94% Calm Calm -- 30.24 in1024.0 mb 0.00 in0.0 mm 0.00 in0.0 mm 0.00 in0.0 mm
04:00 AM 35.4°F1.9°C 33.9°F1.1°C 94% Calm Calm 2.0 mph3.2 kmh 30.24 in1024.0 mb 0.00 in0.0 mm 0.00 in0.0 mm 0.00 in0.0 mm
03:50 AM 35.2°F1.8°C 33.7°F0.9°C 94% 1.0 mph NNW1.6 kmh NNW 2.0 mph3.2 kmh 30.24 in1024.0 mb 0.00 in0.0 mm 0.00 in0.0 mm 0.00 in0.0 mm
03:40 AM 35.1°F1.7°C 33.5°F0.8°C 94% Calm Calm 2.0 mph3.2 kmh 30.24 in1024.0 mb 0.00 in0.0 mm 0.00 in0.0 mm 0.00 in0.0 mm
03:30 AM 35.2°F1.8°C 33.4°F0.8°C 93% Calm Calm 2.0 mph3.2 kmh 30.25 in1024.4 mb 0.00 in0.0 mm 0.00 in0.0 mm 0.00 in0.0 mm
03:20 AM 35.8°F2.1°C 34.0°F1.1°C 93% 1.0 mph NW1.6 kmh NW 1.0 mph1.6 kmh 30.24 in1024.0 mb 0.00 in0.0 mm 0.00 in0.0 mm 0.00 in0.0 mm
03:10 AM 36.0°F2.2°C 34.4°F1.3°C 94% Calm Calm 3.0 mph4.8 kmh 30.25 in1024.4 mb 0.00 in0.0 mm 0.00 in0.0 mm 0.00 in0.0 mm
03:00 AM 36.1°F2.3°C 34.6°F1.4°C 94% 1.0 mph NNW1.6 kmh NNW 2.0 mph3.2 kmh 30.25 in1024.4 mb 0.00 in0.0 mm 0.00 in0.0 mm 0.00 in0.0 mm
02:50 AM 36.1°F2.3°C 34.6°F1.4°C 94% Calm Calm 3.0 mph4.8 kmh 30.25 in1024.4 mb 0.00 in0.0 mm 0.00 in0.0 mm 0.00 in0.0 mm
02:40 AM 36.1°F2.3°C 34.6°F1.4°C 94% 1.0 mph 1.6 kmh -- 30.25 in1024.4 mb 0.00 in0.0 mm 0.00 in0.0 mm 0.00 in0.0 mm
02:30 AM 36.1°F2.3°C 34.6°F1.4°C 94% 1.0 mph NW1.6 kmh NW 4.0 mph6.4 kmh 30.24 in1024.0 mb 0.00 in0.0 mm 0.00 in0.0 mm 0.00 in0.0 mm
02:20 AM 36.3°F2.4°C 34.8°F1.6°C 94% Calm Calm 1.0 mph1.6 kmh 30.24 in1024.0 mb 0.00 in0.0 mm 0.00 in0.0 mm 0.00 in0.0 mm
02:10 AM 36.1°F2.3°C 34.6°F1.4°C 94% Calm Calm 2.0 mph3.2 kmh 30.24 in1024.0 mb 0.00 in0.0 mm 0.00 in0.0 mm 0.00 in0.0 mm
02:00 AM 36.0°F2.2°C 34.4°F1.3°C 94% Calm Calm 1.0 mph1.6 kmh 30.25 in1024.4 mb 0.00 in0.0 mm 0.00 in0.0 mm 0.00 in0.0 mm
01:50 AM 35.8°F2.1°C 34.2°F1.2°C 94% Calm Calm 3.0 mph4.8 kmh 30.25 in1024.4 mb 0.00 in0.0 mm 0.00 in0.0 mm 0.00 in0.0 mm
01:40 AM 35.2°F1.8°C 33.7°F0.9°C 94% Calm Calm -- 30.25 in1024.4 mb 0.00 in0.0 mm 0.00 in0.0 mm 0.00 in0.0 mm
01:30 AM 35.1°F1.7°C 33.2°F0.7°C 93% Calm Calm -- 30.25 in1024.4 mb 0.00 in0.0 mm 0.00 in0.0 mm 0.00 in0.0 mm
01:20 AM 35.1°F1.7°C 33.2°F0.7°C 93% Calm Calm -- 30.25 in1024.4 mb 0.00 in0.0 mm 0.00 in0.0 mm 0.00 in0.0 mm
01:10 AM 34.9°F1.6°C 33.3°F0.7°C 94% 1.0 mph 1.6 kmh -- 30.25 in1024.4 mb 0.00 in0.0 mm 0.00 in0.0 mm 0.00 in0.0 mm
01:00 AM 34.9°F1.6°C 33.1°F0.6°C 93% 1.0 mph NNW1.6 kmh NNW 3.0 mph4.8 kmh 30.25 in1024.4 mb 0.00 in0.0 mm 0.00 in0.0 mm 0.00 in0.0 mm
12:50 AM 35.2°F1.8°C 33.4°F0.8°C 93% 2.0 mph NW3.2 kmh NW 3.0 mph4.8 kmh 30.25 in1024.4 mb 0.00 in0.0 mm 0.00 in0.0 mm 0.00 in0.0 mm
12:40 AM 35.2°F1.8°C 33.7°F0.9°C 94% 2.0 mph NW3.2 kmh NW 3.0 mph4.8 kmh 30.25 in1024.4 mb 0.00 in0.0 mm 0.00 in0.0 mm 0.00 in0.0 mm
12:30 AM 35.2°F1.8°C 33.4°F0.8°C 93% 2.0 mph NNW3.2 kmh NNW 3.0 mph4.8 kmh 30.25 in1024.4 mb 0.00 in0.0 mm 0.00 in0.0 mm 0.00 in0.0 mm
12:20 AM 35.2°F1.8°C 33.4°F0.8°C 93% 1.0 mph NNW1.6 kmh NNW 3.0 mph4.8 kmh 30.25 in1024.4 mb 0.00 in0.0 mm 0.00 in0.0 mm 0.00 in0.0 mm
12:10 AM 35.6°F2.0°C 33.8°F1.0°C 93% 1.0 mph NNW1.6 kmh NNW 2.0 mph3.2 kmh 30.24 in1024.0 mb 0.00 in0.0 mm 0.00 in0.0 mm 0.00 in0.0 mm
12:00 AM 35.8°F2.1°C 34.0°F1.1°C 93% 1.0 mph NW1.6 kmh NW 3.0 mph4.8 kmh 30.24 in1024.0 mb 0.00 in0.0 mm 0.00 in0.0 mm 0.00 in0.0 mm